createdAt,value
2023-04-30T00:00:17.360Z,735.8
2023-04-30T00:02:01.069Z,728.7
2023-04-30T00:03:44.787Z,730.5
2023-04-30T00:05:28.487Z,731.2
2023-04-30T00:07:12.173Z,733.1
2023-04-30T00:08:55.882Z,741.8
2023-04-30T00:10:39.714Z,743.2
2023-04-30T00:12:23.285Z,742.5
2023-04-30T00:14:07.002Z,739.6
2023-04-30T00:15:50.704Z,741.2
2023-04-30T00:17:34.393Z,740.7
2023-04-30T00:19:18.091Z,742.3
2023-04-30T00:21:01.793Z,740.1
2023-04-30T00:22:45.494Z,740.5
2023-04-30T00:24:29.349Z,740.6
2023-04-30T00:26:12.900Z,742.1
2023-04-30T00:27:56.618Z,744.9
2023-04-30T00:29:40.334Z,747.3
2023-04-30T00:31:24.200Z,745.9
2023-04-30T00:33:07.739Z,745.5
2023-04-30T00:34:51.415Z,744.8
2023-04-30T00:36:35.144Z,746.3
2023-04-30T00:38:18.881Z,747.1
2023-04-30T00:40:02.584Z,749.4
2023-04-30T00:41:46.305Z,751.7
2023-04-30T00:43:29.926Z,751.9
2023-04-30T00:45:13.644Z,750.5
2023-04-30T00:46:57.342Z,749.9
2023-04-30T00:48:41.040Z,752.6
2023-04-30T00:50:24.734Z,750.7
2023-04-30T00:52:08.441Z,751
2023-04-30T00:53:52.162Z,750.9
2023-04-30T00:55:35.836Z,752.1
2023-04-30T00:57:19.633Z,754.3
2023-04-30T00:59:03.247Z,751.1
2023-04-30T01:00:46.961Z,753.3
2023-04-30T01:02:30.662Z,757
2023-04-30T01:04:14.356Z,758.6
2023-04-30T01:05:58.055Z,758
2023-04-30T01:07:41.810Z,754.8
2023-04-30T01:09:25.453Z,753.8
2023-04-30T01:11:09.159Z,753.5
2023-04-30T01:12:52.871Z,759.5
2023-04-30T01:14:36.569Z,766
2023-04-30T01:16:20.262Z,761.7
2023-04-30T01:18:04.045Z,760.3
2023-04-30T01:19:47.784Z,755.3
2023-04-30T01:21:31.426Z,757.1
2023-04-30T01:23:15.087Z,758.1
2023-04-30T01:24:58.826Z,758.1
2023-04-30T01:26:42.489Z,752.6
2023-04-30T01:28:26.262Z,752.4
2023-04-30T01:30:10.007Z,757.1
2023-04-30T01:31:53.597Z,759.3
2023-04-30T01:33:37.295Z,762.5
2023-04-30T01:35:21.001Z,764
2023-04-30T01:37:04.711Z,766.1
2023-04-30T01:38:48.406Z,768.8
2023-04-30T01:40:32.209Z,767.8
2023-04-30T01:42:15.813Z,768.9
2023-04-30T01:43:59.557Z,770.3
2023-04-30T01:45:43.320Z,769.7
2023-04-30T01:47:26.909Z,766.7
2023-04-30T01:49:10.623Z,769.3
2023-04-30T01:50:54.368Z,770.3
2023-04-30T01:52:38.018Z,774.7
2023-04-30T01:54:21.734Z,781.6
2023-04-30T01:56:05.427Z,777.4
2023-04-30T01:57:49.120Z,776.2
2023-04-30T01:59:32.830Z,774.7
2023-04-30T02:01:16.522Z,777.3
2023-04-30T02:03:00.237Z,777.5
2023-04-30T02:04:44.088Z,780.9
2023-04-30T02:06:27.639Z,782.8
2023-04-30T02:08:11.365Z,782.4
2023-04-30T02:09:55.166Z,782.4
2023-04-30T02:11:38.740Z,781
2023-04-30T02:13:22.473Z,782.3
2023-04-30T02:15:06.234Z,784.8
2023-04-30T02:16:49.878Z,786.9
2023-04-30T02:18:33.624Z,786
2023-04-30T02:20:17.259Z,785.7
2023-04-30T02:22:01.094Z,786
2023-04-30T02:23:44.700Z,786.2
2023-04-30T02:25:28.377Z,789.2
2023-04-30T02:27:12.065Z,796.4
2023-04-30T02:28:55.760Z,805.9
2023-04-30T02:30:39.590Z,808.6
2023-04-30T02:32:23.172Z,809.6
2023-04-30T02:34:06.923Z,808.1
2023-04-30T02:35:50.574Z,806
2023-04-30T02:37:34.293Z,805.3
2023-04-30T02:39:17.975Z,806.9
2023-04-30T02:41:01.785Z,810.6
2023-04-30T02:42:45.374Z,813.1
2023-04-30T02:44:29.092Z,812.4
2023-04-30T02:46:12.783Z,813.4
2023-04-30T02:47:56.478Z,815.2
2023-04-30T02:49:40.206Z,814.6
2023-04-30T02:51:23.927Z,817.1
2023-04-30T02:53:07.670Z,817.3
2023-04-30T02:54:51.355Z,817.4
2023-04-30T02:56:35.001Z,813.5
2023-04-30T02:58:18.790Z,815.5
2023-04-30T03:00:02.405Z,816.9
2023-04-30T03:01:46.106Z,815.9
2023-04-30T03:03:29.805Z,818
2023-04-30T03:05:13.511Z,817.7
2023-04-30T03:06:57.250Z,821.7
2023-04-30T03:08:40.915Z,825
2023-04-30T03:10:24.782Z,824.9
2023-04-30T03:12:08.328Z,829.4
2023-04-30T03:13:52.029Z,827.5
2023-04-30T03:15:35.722Z,824.4
2023-04-30T03:17:19.443Z,828.6
2023-04-30T03:19:03.129Z,828.3
2023-04-30T03:20:46.828Z,830.8
2023-04-30T03:22:30.533Z,834
2023-04-30T03:24:14.360Z,833.8
2023-04-30T03:25:57.936Z,836.2
2023-04-30T03:27:41.649Z,835.8
2023-04-30T03:29:25.362Z,838.4
2023-04-30T03:31:09.051Z,835.9
2023-04-30T03:32:52.932Z,833.6
2023-04-30T03:34:36.452Z,832.6
2023-04-30T03:36:20.163Z,837
2023-04-30T03:38:03.865Z,838.8
2023-04-30T03:39:47.701Z,838.8
2023-04-30T03:41:31.264Z,838
2023-04-30T03:43:15.013Z,839.1
2023-04-30T03:44:58.677Z,837.7
2023-04-30T03:46:42.486Z,838.9
2023-04-30T03:48:26.074Z,839.2
2023-04-30T03:50:09.786Z,839.1
2023-04-30T03:51:53.487Z,838.3
2023-04-30T03:53:37.296Z,841
2023-04-30T03:55:21.149Z,842.7
2023-04-30T03:57:04.593Z,847.1
2023-04-30T03:58:48.301Z,851.1
2023-04-30T04:00:32.189Z,851.2
2023-04-30T04:02:15.741Z,849.6
2023-04-30T04:03:59.402Z,846.1
2023-04-30T04:05:43.111Z,849.9
2023-04-30T04:07:26.807Z,851.2
2023-04-30T04:09:10.515Z,850.6
2023-04-30T04:10:54.263Z,848.3
2023-04-30T04:12:37.976Z,849.4
2023-04-30T04:14:21.619Z,856.1
2023-04-30T04:16:05.318Z,853.3
2023-04-30T04:17:49.054Z,853.8
2023-04-30T04:19:32.736Z,855.9
2023-04-30T04:21:16.495Z,858.4
2023-04-30T04:23:00.129Z,859.7
2023-04-30T04:24:43.846Z,860.1
2023-04-30T04:26:27.546Z,858.2
2023-04-30T04:28:11.239Z,858.3
2023-04-30T04:29:55.016Z,863.5
2023-04-30T04:31:38.635Z,864.8
2023-04-30T04:33:22.401Z,865.8
2023-04-30T04:35:06.088Z,863.9
2023-04-30T04:36:49.959Z,863.9
2023-04-30T04:38:33.442Z,868.8
2023-04-30T04:40:17.154Z,872
2023-04-30T04:42:00.918Z,879.6
2023-04-30T04:43:44.727Z,881.7
2023-04-30T04:45:28.339Z,881.9
2023-04-30T04:47:12.052Z,884.6
2023-04-30T04:48:55.673Z,882.3
2023-04-30T04:50:39.361Z,881.5
2023-04-30T04:52:23.062Z,884.6
2023-04-30T04:54:06.771Z,885.9
2023-04-30T04:55:50.581Z,885.6
2023-04-30T04:57:34.170Z,887.8
2023-04-30T04:59:18.012Z,892.2
2023-04-30T05:01:01.583Z,892.6
2023-04-30T05:02:45.420Z,891.1
2023-04-30T05:04:28.996Z,886.5
2023-04-30T05:06:12.705Z,885.2
2023-04-30T05:07:56.425Z,885.8
2023-04-30T05:09:40.093Z,886.3
2023-04-30T05:11:23.847Z,886.7
2023-04-30T05:13:07.518Z,889.8
2023-04-30T05:14:51.265Z,893.6
2023-04-30T05:16:35.004Z,897
2023-04-30T05:18:18.655Z,900.6
2023-04-30T05:20:02.379Z,902.4
2023-04-30T05:21:46.020Z,905.6
2023-04-30T05:23:29.855Z,906.6
2023-04-30T05:25:13.427Z,910.5
2023-04-30T05:26:57.127Z,911.5
2023-04-30T05:28:40.878Z,909.8
2023-04-30T05:30:24.528Z,910.2
2023-04-30T05:32:08.241Z,910.4
2023-04-30T05:33:52.035Z,912.8
2023-04-30T05:35:35.639Z,916.8
2023-04-30T05:37:19.383Z,919.4
2023-04-30T05:39:03.156Z,919.9
2023-04-30T05:40:46.903Z,921.1
2023-04-30T05:42:30.519Z,920.6
2023-04-30T05:44:14.169Z,920.4
2023-04-30T05:45:57.876Z,919.2
2023-04-30T05:47:41.551Z,921.5
2023-04-30T05:49:25.332Z,921.6
2023-04-30T05:51:09.076Z,922.3
2023-04-30T05:52:52.705Z,924.4
2023-04-30T05:54:36.457Z,925.3
2023-04-30T05:56:20.118Z,924.7
2023-04-30T05:58:03.863Z,929.5
2023-04-30T05:59:47.596Z,933.5
2023-04-30T06:01:31.278Z,933.8
2023-04-30T06:03:14.889Z,936.5
2023-04-30T06:04:58.586Z,950.9
2023-04-30T06:06:42.280Z,969.4
2023-04-30T06:08:26.097Z,965.6
2023-04-30T06:10:09.850Z,958.7
2023-04-30T06:11:53.393Z,952.8
2023-04-30T06:13:37.138Z,951.7
2023-04-30T06:15:20.832Z,948
2023-04-30T06:17:04.504Z,946.6
2023-04-30T06:18:48.217Z,947.1
2023-04-30T06:20:31.960Z,946.9
2023-04-30T06:22:15.614Z,946.8
2023-04-30T06:23:59.309Z,947.8
2023-04-30T06:25:43.188Z,951.1
2023-04-30T06:27:26.765Z,949.9
2023-04-30T06:29:10.421Z,952.3
2023-04-30T06:30:54.117Z,954.7
2023-04-30T06:32:37.839Z,955.9
2023-04-30T06:34:21.520Z,956.8
2023-04-30T06:36:05.225Z,960.5
2023-04-30T06:37:48.974Z,959.9
2023-04-30T06:39:32.629Z,957.6
2023-04-30T06:41:16.334Z,961
2023-04-30T06:43:00.041Z,963.8
2023-04-30T06:44:43.733Z,966.4
2023-04-30T06:46:27.431Z,969.6
2023-04-30T06:48:11.141Z,969.6
2023-04-30T06:49:54.989Z,972.3
2023-04-30T06:51:38.610Z,976.5
2023-04-30T06:53:22.249Z,979.8
2023-04-30T06:55:05.956Z,980.3
2023-04-30T06:56:49.669Z,984.7
2023-04-30T06:58:33.360Z,989.7
2023-04-30T07:00:17.150Z,985.4
2023-04-30T07:02:00.797Z,986.3
2023-04-30T07:03:44.468Z,986.3
2023-04-30T07:05:28.173Z,984.8
2023-04-30T07:07:11.913Z,985.2
2023-04-30T07:08:55.617Z,988.2
2023-04-30T07:10:39.295Z,991.9
2023-04-30T07:12:23.076Z,991
2023-04-30T07:14:06.683Z,990.2
2023-04-30T07:15:50.385Z,991.3
2023-04-30T07:17:34.126Z,994.6
2023-04-30T07:19:17.789Z,997.5
2023-04-30T07:21:01.499Z,997.6
2023-04-30T07:22:45.259Z,998.8
2023-04-30T07:24:28.956Z,998.9
2023-04-30T07:26:12.596Z,999.4
2023-04-30T07:27:56.353Z,996.6
2023-04-30T07:29:40.069Z,997.5
2023-04-30T07:31:23.709Z,999.3
2023-04-30T07:33:07.468Z,1000.6
2023-04-30T07:34:51.138Z,1006
2023-04-30T07:36:34.806Z,1010.8
2023-04-30T07:38:18.540Z,1017.6
2023-04-30T07:40:02.286Z,1017.8
2023-04-30T07:41:45.909Z,1016.1
2023-04-30T07:43:29.637Z,1016.7
2023-04-30T07:45:13.341Z,1016.5
2023-04-30T07:46:57.023Z,1019.5
2023-04-30T07:48:40.727Z,1018.4
2023-04-30T07:50:24.606Z,1015
2023-04-30T07:52:08.139Z,1018.6
2023-04-30T07:53:52.006Z,1020.1
2023-04-30T07:55:35.764Z,1021.1
2023-04-30T07:57:19.426Z,1022.3
2023-04-30T07:59:03.043Z,1023.5
2023-04-30T08:00:46.832Z,1344.1
2023-04-30T08:02:30.355Z,1586.9
2023-04-30T08:04:14.052Z,1374.7
2023-04-30T08:05:57.951Z,860.1
2023-04-30T08:07:41.637Z,736.6
2023-04-30T08:09:25.319Z,650.3
2023-04-30T08:11:09.026Z,617
2023-04-30T08:12:52.742Z,586.4
2023-04-30T08:14:36.425Z,539.1
2023-04-30T08:16:20.104Z,526.3
2023-04-30T08:18:03.706Z,507
2023-04-30T08:19:47.558Z,486
2023-04-30T08:21:31.232Z,480.5
2023-04-30T08:23:14.866Z,478.3
2023-04-30T08:24:58.504Z,629.7
2023-04-30T08:26:42.245Z,707.1
2023-04-30T08:28:25.893Z,700.8
2023-04-30T08:30:09.613Z,696.1
2023-04-30T08:31:53.297Z,690.9
2023-04-30T08:33:37.011Z,685.6
2023-04-30T08:35:20.720Z,677.7
2023-04-30T08:37:04.404Z,673
2023-04-30T08:38:48.107Z,668.3
2023-04-30T08:40:31.952Z,669.7
2023-04-30T08:42:15.572Z,673.1
2023-04-30T08:43:59.329Z,679.3
2023-04-30T08:45:42.921Z,686.1
2023-04-30T08:47:26.620Z,687.7
2023-04-30T08:49:10.343Z,695.7
2023-04-30T08:50:54.012Z,709
2023-04-30T08:52:37.739Z,721.2
2023-04-30T08:54:21.548Z,725.5
2023-04-30T08:56:05.115Z,729.4
2023-04-30T08:57:48.921Z,732.2
2023-04-30T08:59:32.543Z,745.7
2023-04-30T09:01:16.254Z,760
2023-04-30T09:02:59.935Z,757.2
2023-04-30T09:04:43.632Z,759.1
2023-04-30T09:06:27.401Z,764.1
2023-04-30T09:08:11.071Z,765.8
2023-04-30T09:09:54.739Z,765
2023-04-30T09:11:38.448Z,767.2
2023-04-30T09:13:22.176Z,776.1
2023-04-30T09:15:05.847Z,782.7
2023-04-30T09:16:49.570Z,782.6
2023-04-30T09:18:33.285Z,780.7
2023-04-30T09:20:16.950Z,778.6
2023-04-30T09:22:00.671Z,783.5
2023-04-30T09:23:44.416Z,784.4
2023-04-30T09:25:28.070Z,782.8
2023-04-30T09:27:11.934Z,782.1
2023-04-30T09:28:55.464Z,778.3
2023-04-30T09:30:39.278Z,775.8
2023-04-30T09:32:22.876Z,780.3
2023-04-30T09:34:06.573Z,790.4
2023-04-30T09:35:50.290Z,799.5
2023-04-30T09:37:33.968Z,810.9
2023-04-30T09:39:17.687Z,807.2
2023-04-30T09:41:01.455Z,799
2023-04-30T09:42:45.087Z,797.4
2023-04-30T09:44:28.789Z,796.9
2023-04-30T09:46:12.491Z,800.2
2023-04-30T09:47:56.287Z,804.4
2023-04-30T09:49:39.888Z,807.1
2023-04-30T09:51:23.730Z,805.2
2023-04-30T09:53:07.336Z,805.8
2023-04-30T09:54:51.026Z,800.7
2023-04-30T09:56:34.736Z,798.2
2023-04-30T09:58:18.518Z,788.8
2023-04-30T10:00:02.309Z,782.4
2023-04-30T10:01:45.822Z,777.7
2023-04-30T10:03:29.556Z,778.8
2023-04-30T10:05:13.378Z,780.8
2023-04-30T10:06:56.954Z,778.3
2023-04-30T10:08:40.701Z,781
2023-04-30T10:12:08.040Z,783.6
2023-04-30T10:13:51.738Z,785.4
2023-04-30T10:15:35.454Z,794
2023-04-30T10:17:19.137Z,793.5
2023-04-30T10:19:02.866Z,798.4
2023-04-30T10:20:46.640Z,805.2
2023-04-30T10:22:30.260Z,810
2023-04-30T10:24:14.071Z,814.6
2023-04-30T10:25:57.663Z,817.5
2023-04-30T10:27:41.357Z,817
2023-04-30T10:29:25.148Z,816.9
2023-04-30T10:31:08.786Z,822.6
2023-04-30T10:32:52.488Z,1001.4
2023-04-30T10:34:36.181Z,997.4
2023-04-30T10:36:19.918Z,1002.2
2023-04-30T10:38:03.644Z,901.2
2023-04-30T10:39:47.368Z,881.9
2023-04-30T10:41:31.041Z,876.7
2023-04-30T10:43:14.692Z,879.4
2023-04-30T10:44:58.393Z,878.1
2023-04-30T10:46:42.086Z,881.5
2023-04-30T10:48:25.798Z,882.1
2023-04-30T10:50:09.478Z,882.3
2023-04-30T10:51:53.192Z,883.3
2023-04-30T10:53:36.933Z,887.1
2023-04-30T10:55:20.760Z,887
2023-04-30T10:57:04.295Z,888
2023-04-30T10:58:47.992Z,886.1
2023-04-30T11:00:31.803Z,884.2
2023-04-30T11:02:15.480Z,882.9
2023-04-30T11:03:59.112Z,883.1
2023-04-30T11:05:42.813Z,882.6
2023-04-30T11:07:26.515Z,880.4
2023-04-30T11:09:10.218Z,882.9
2023-04-30T11:10:53.924Z,882.1
2023-04-30T11:12:37.673Z,879.6
2023-04-30T11:14:21.336Z,879.4
2023-04-30T11:16:05.033Z,878.5
2023-04-30T11:17:48.751Z,877.6
2023-04-30T11:19:32.492Z,880.7
2023-04-30T11:21:16.136Z,879.2
2023-04-30T11:22:59.841Z,877.3
2023-04-30T11:24:43.552Z,877.1
2023-04-30T11:26:27.265Z,879.4
2023-04-30T11:28:10.939Z,880.5
2023-04-30T11:29:54.775Z,883
2023-04-30T11:31:38.355Z,882.5
2023-04-30T11:33:22.050Z,877.8
2023-04-30T11:35:05.767Z,873
2023-04-30T11:36:49.508Z,866.7
2023-04-30T11:38:33.172Z,832.7
2023-04-30T11:40:17.002Z,818.7
2023-04-30T11:42:00.817Z,834.7
2023-04-30T11:43:44.283Z,846.2
2023-04-30T11:45:28.038Z,848.5
2023-04-30T11:47:11.672Z,851
2023-04-30T11:48:55.453Z,851.5
2023-04-30T11:50:39.131Z,848.9
2023-04-30T11:52:22.805Z,849.4
2023-04-30T11:54:06.493Z,848.3
2023-04-30T11:55:50.284Z,850.8
2023-04-30T11:57:33.895Z,856.1
2023-04-30T11:59:17.602Z,863.3
2023-04-30T12:01:01.323Z,866.8
2023-04-30T12:02:45.004Z,869.6
2023-04-30T12:04:28.705Z,872.4
2023-04-30T12:06:12.403Z,875.5
2023-04-30T12:07:56.108Z,876
2023-04-30T12:09:39.905Z,874.4
2023-04-30T12:11:23.537Z,873.1
2023-04-30T12:13:07.231Z,877.7
2023-04-30T12:14:50.915Z,878.7
2023-04-30T12:16:34.629Z,876.4
2023-04-30T12:18:18.317Z,874.4
2023-04-30T12:20:02.162Z,869.7
2023-04-30T12:21:45.879Z,869.8
2023-04-30T12:23:29.542Z,872.3
2023-04-30T12:25:13.129Z,870.9
2023-04-30T12:26:56.884Z,868.9
2023-04-30T12:28:40.590Z,869
2023-04-30T12:30:24.300Z,870.3
2023-04-30T12:32:08.080Z,869.6
2023-04-30T12:33:51.642Z,868.7
2023-04-30T12:35:35.353Z,868.1
2023-04-30T12:37:19.043Z,865.2
2023-04-30T12:39:02.770Z,868.6
2023-04-30T12:40:46.606Z,870.8
2023-04-30T12:42:30.153Z,867.7
2023-04-30T12:44:13.923Z,872
2023-04-30T12:45:57.569Z,876.4
2023-04-30T12:47:41.267Z,877.5
2023-04-30T12:49:25.031Z,879
2023-04-30T12:51:08.694Z,880.9
2023-04-30T12:52:52.523Z,877.1
2023-04-30T12:54:36.096Z,874.4
2023-04-30T12:56:19.770Z,873.4
2023-04-30T12:58:03.476Z,872.2
2023-04-30T12:59:47.297Z,868.8
2023-04-30T13:01:30.883Z,871.6
2023-04-30T13:03:14.724Z,866.1
2023-04-30T13:04:58.308Z,866
2023-04-30T13:06:42.046Z,865.4
2023-04-30T13:08:25.701Z,865.1
2023-04-30T13:10:09.381Z,864.4
2023-04-30T13:11:53.092Z,862.8
2023-04-30T13:13:36.828Z,865.6
2023-04-30T13:15:20.566Z,862.7
2023-04-30T13:17:04.269Z,859.7
2023-04-30T13:18:47.898Z,856.7
2023-04-30T13:20:31.761Z,858.1
2023-04-30T13:22:15.324Z,858.4
2023-04-30T13:23:59.033Z,857.2
2023-04-30T13:25:42.772Z,856.8
2023-04-30T13:27:26.419Z,853.9
2023-04-30T13:29:10.239Z,852.7
2023-04-30T13:30:53.815Z,852.6
2023-04-30T13:32:37.635Z,855
2023-04-30T13:34:21.295Z,855.4
2023-04-30T13:36:04.971Z,854.2
2023-04-30T13:37:48.649Z,853.3
2023-04-30T13:39:32.333Z,855.3
2023-04-30T13:41:16.244Z,854.6
2023-04-30T13:42:59.753Z,855.1
2023-04-30T13:46:27.141Z,851.6
2023-04-30T13:48:10.849Z,849.9
2023-04-30T13:49:54.542Z,846.7
2023-04-30T13:53:21.975Z,847.7
2023-04-30T13:55:05.654Z,849.2
2023-04-30T13:56:49.439Z,845.3
2023-04-30T13:58:33.097Z,845
2023-04-30T14:00:16.832Z,845.8
2023-04-30T14:02:00.464Z,841.8
2023-04-30T14:03:44.165Z,840.6
2023-04-30T14:05:27.870Z,838.8
2023-04-30T14:07:11.574Z,835
2023-04-30T14:08:55.271Z,832.8
2023-04-30T14:10:39.106Z,832
2023-04-30T14:12:22.677Z,832.8
2023-04-30T14:14:06.490Z,830.1
2023-04-30T14:15:50.133Z,829.4
2023-04-30T14:17:33.798Z,826.9
2023-04-30T14:19:17.597Z,824.5
2023-04-30T14:21:01.238Z,829.6
2023-04-30T14:22:44.958Z,830.2
2023-04-30T14:24:28.594Z,826.4
2023-04-30T14:26:12.358Z,828.2
2023-04-30T14:27:56.015Z,830.2
2023-04-30T14:29:39.798Z,829
2023-04-30T14:31:23.395Z,827.5
2023-04-30T14:33:07.095Z,826.4
2023-04-30T14:34:50.812Z,824.7
2023-04-30T14:38:18.266Z,834.9
2023-04-30T14:40:01.907Z,832.4
2023-04-30T14:41:45.697Z,831.2
2023-04-30T14:43:29.318Z,832
2023-04-30T14:45:13.008Z,832.5
2023-04-30T14:46:56.746Z,835.7
2023-04-30T14:48:40.417Z,833.1
2023-04-30T14:50:24.186Z,832.6
2023-04-30T14:52:07.827Z,833.2
2023-04-30T14:53:51.535Z,828.2
2023-04-30T14:55:35.264Z,828.5
2023-04-30T14:57:18.972Z,830.6
2023-04-30T14:59:02.647Z,829.8
2023-04-30T15:00:46.351Z,825.9
2023-04-30T15:02:30.140Z,826.2
2023-04-30T15:04:13.764Z,824.5
2023-04-30T15:05:57.540Z,823.8
2023-04-30T15:07:41.147Z,827.3
2023-04-30T15:09:25.152Z,828.5
2023-04-30T15:11:08.558Z,828.2
2023-04-30T15:12:52.269Z,829.1
2023-04-30T15:14:36.049Z,827.4
2023-04-30T15:16:19.675Z,823.3
2023-04-30T15:18:03.364Z,822.2
2023-04-30T15:19:47.250Z,820
2023-04-30T15:21:30.799Z,818.2
2023-04-30T15:23:14.615Z,815.7
2023-04-30T15:24:58.181Z,815.1
2023-04-30T15:26:41.901Z,818
2023-04-30T15:28:25.592Z,816.9
2023-04-30T15:30:09.370Z,812.8
2023-04-30T15:31:52.986Z,810
2023-04-30T15:33:36.689Z,810
2023-04-30T15:35:20.403Z,808.6
2023-04-30T15:37:04.100Z,809.3
2023-04-30T15:38:47.803Z,810.3
2023-04-30T15:40:31.617Z,809.5
2023-04-30T15:42:15.228Z,806.4
2023-04-30T15:43:58.935Z,805.8
2023-04-30T15:45:42.614Z,807.6
2023-04-30T15:47:26.318Z,807.1
2023-04-30T15:49:10.035Z,806
2023-04-30T15:50:53.859Z,807
2023-04-30T15:52:37.421Z,812.1
2023-04-30T15:54:21.150Z,809.2
2023-04-30T15:56:04.900Z,806.9
2023-04-30T15:57:48.521Z,805.1
2023-04-30T15:59:32.241Z,802.3
2023-04-30T16:01:15.934Z,800.7
2023-04-30T16:02:59.726Z,800.7
2023-04-30T16:04:43.340Z,797.5
2023-04-30T16:06:27.044Z,798
2023-04-30T16:08:10.754Z,795.8
2023-04-30T16:09:54.562Z,791.2
2023-04-30T16:11:38.148Z,790.5
2023-04-30T16:13:21.876Z,797.4
2023-04-30T16:15:05.549Z,793.7
2023-04-30T16:16:49.254Z,788.5
2023-04-30T16:18:32.994Z,792.9
2023-04-30T16:20:16.661Z,794.8
2023-04-30T16:22:00.375Z,793.8
2023-04-30T16:23:44.131Z,796.3
2023-04-30T16:25:27.775Z,799.9
2023-04-30T16:27:11.525Z,799.2
2023-04-30T16:28:55.176Z,798
2023-04-30T16:30:38.987Z,794.9
2023-04-30T16:32:22.580Z,793.5
2023-04-30T16:34:06.349Z,792.5
2023-04-30T16:35:50.014Z,791.3
2023-04-30T16:37:33.728Z,791.3
2023-04-30T16:39:17.445Z,793.2
2023-04-30T16:41:01.231Z,791.2
2023-04-30T16:42:44.793Z,791.8
2023-04-30T16:44:28.505Z,786.4
2023-04-30T16:47:55.961Z,788.1
2023-04-30T16:49:39.609Z,788
2023-04-30T16:51:23.305Z,788
2023-04-30T16:53:07.004Z,790.7
2023-04-30T16:54:50.709Z,790.3
2023-04-30T16:56:34.408Z,787.1
2023-04-30T16:58:18.196Z,791.3
2023-04-30T17:00:01.912Z,795.9
2023-04-30T17:01:45.519Z,797.1
2023-04-30T17:03:29.225Z,794.4
2023-04-30T17:05:12.920Z,793.7
2023-04-30T17:06:56.631Z,789.3
2023-04-30T17:08:40.332Z,790.2
2023-04-30T17:10:24.028Z,790.6
2023-04-30T17:12:07.737Z,791.1
2023-04-30T17:13:51.450Z,791.9
2023-04-30T17:15:35.136Z,793.2
2023-04-30T17:17:18.835Z,789.7
2023-04-30T17:19:02.556Z,789.9
2023-04-30T17:20:46.245Z,789.4
2023-04-30T17:22:29.944Z,787.2
2023-04-30T17:24:13.651Z,783.8
2023-04-30T17:25:57.357Z,787.9
2023-04-30T17:27:41.069Z,791.3
2023-04-30T17:29:24.757Z,785.2
2023-04-30T17:31:08.456Z,783.3
2023-04-30T17:32:52.164Z,783.1
2023-04-30T17:34:35.880Z,781.2
2023-04-30T17:36:19.567Z,781.3
2023-04-30T17:38:03.266Z,781.5
2023-04-30T17:39:47.002Z,778.7
2023-04-30T17:41:30.747Z,774.9
2023-04-30T17:43:14.390Z,776.3
2023-04-30T17:44:58.179Z,775.8
2023-04-30T17:46:41.781Z,779.2
2023-04-30T17:48:25.493Z,780.8
2023-04-30T17:50:09.352Z,780
2023-04-30T17:51:52.888Z,775.3
2023-04-30T17:53:36.707Z,776.5
2023-04-30T17:55:20.302Z,781.5
2023-04-30T17:57:03.999Z,782.3
2023-04-30T17:58:47.732Z,781.1
2023-04-30T18:00:31.475Z,779.6
2023-04-30T18:02:15.124Z,777.5
2023-04-30T18:03:58.827Z,776.2
2023-04-30T18:05:42.567Z,778
2023-04-30T18:07:26.224Z,776.6
2023-04-30T18:09:09.951Z,777
2023-04-30T18:10:53.620Z,778.9
2023-04-30T18:12:37.319Z,781
2023-04-30T18:14:21.029Z,779.2
2023-04-30T18:16:04.732Z,777.9
2023-04-30T18:17:48.432Z,775.5
2023-04-30T18:19:32.144Z,773.9
2023-04-30T18:21:15.839Z,775.6
2023-04-30T18:22:59.669Z,778.5
2023-04-30T18:24:43.268Z,776.9
2023-04-30T18:26:27.049Z,776.7
2023-04-30T18:28:10.862Z,776.8
2023-04-30T18:29:54.389Z,771.9
2023-04-30T18:31:38.201Z,769.1
2023-04-30T18:33:21.750Z,770.5
2023-04-30T18:35:05.472Z,773.7
2023-04-30T18:36:49.292Z,772.4
2023-04-30T18:38:32.861Z,774.1
2023-04-30T18:40:16.768Z,772.8
2023-04-30T18:42:00.313Z,769.6
2023-04-30T18:43:44.027Z,768.4
2023-04-30T18:45:27.678Z,765.7
2023-04-30T18:47:11.416Z,767.3
2023-04-30T18:48:55.077Z,769.4
2023-04-30T18:50:38.914Z,767.7
2023-04-30T18:52:22.469Z,768.4
2023-04-30T18:54:06.191Z,771.1
2023-04-30T18:55:49.883Z,771.5
2023-04-30T18:57:33.617Z,770.5
2023-04-30T18:59:17.399Z,768.9
2023-04-30T19:01:01.020Z,767.8
2023-04-30T19:02:44.685Z,765.9
2023-04-30T19:04:28.416Z,761
2023-04-30T19:06:12.172Z,754.9
2023-04-30T19:07:55.810Z,753.7
2023-04-30T19:09:39.559Z,754.8
2023-04-30T19:11:23.258Z,753.6
2023-04-30T19:13:06.975Z,756.8
2023-04-30T19:14:50.661Z,759.3
2023-04-30T19:16:34.310Z,761.4
2023-04-30T19:18:18.010Z,766.7
2023-04-30T19:20:01.712Z,781
2023-04-30T19:21:45.414Z,790.1
2023-04-30T19:23:29.140Z,795.1
2023-04-30T19:25:12.820Z,800.5
2023-04-30T19:26:56.579Z,803.2
2023-04-30T19:28:40.259Z,809
2023-04-30T19:30:24.055Z,819
2023-04-30T19:32:07.678Z,824.9
2023-04-30T19:33:51.409Z,826.9
2023-04-30T19:35:35.034Z,828.2
2023-04-30T19:37:18.737Z,830.5
2023-04-30T19:39:02.515Z,831.8
2023-04-30T19:40:46.274Z,834.1
2023-04-30T19:42:29.920Z,842.6
2023-04-30T19:44:13.618Z,847.8
2023-04-30T19:45:57.276Z,845.3
2023-04-30T19:47:41.003Z,833.7
2023-04-30T19:49:24.661Z,822.3
2023-04-30T19:51:08.410Z,817.6
2023-04-30T19:52:52.062Z,810.5
2023-04-30T19:54:35.774Z,805.1
2023-04-30T19:56:19.479Z,803.9
2023-04-30T19:58:03.176Z,806.2
2023-04-30T19:59:46.932Z,807.8
2023-04-30T20:01:30.636Z,807.6
2023-04-30T20:03:14.359Z,804.8
2023-04-30T20:04:57.997Z,802.1
2023-04-30T20:06:41.747Z,803.9
2023-04-30T20:08:25.386Z,804.6
2023-04-30T20:10:09.244Z,801.6
2023-04-30T20:11:52.863Z,797.3
2023-04-30T20:13:36.529Z,792.5
2023-04-30T20:15:20.197Z,788.5
2023-04-30T20:17:03.924Z,786.3
2023-04-30T20:18:47.610Z,786.5
2023-04-30T20:20:31.384Z,786.8
2023-04-30T20:22:15.026Z,785.8
2023-04-30T20:23:58.717Z,786.4
2023-04-30T20:25:42.419Z,785.1
2023-04-30T20:27:26.132Z,788.1
2023-04-30T20:29:09.814Z,790.8
2023-04-30T20:30:53.642Z,795.8
2023-04-30T20:32:37.363Z,798.3
2023-04-30T20:34:20.923Z,796.3
2023-04-30T20:36:04.635Z,795.1
2023-04-30T20:37:48.330Z,795.5
2023-04-30T20:39:32.056Z,797.9
2023-04-30T20:41:15.865Z,797.9
2023-04-30T20:42:59.429Z,796
2023-04-30T20:44:43.142Z,794.5
2023-04-30T20:46:26.852Z,795.8
2023-04-30T20:48:10.542Z,794.1
2023-04-30T20:49:54.406Z,793.4
2023-04-30T20:51:38.043Z,791.5
2023-04-30T20:53:21.707Z,791.6
2023-04-30T20:55:05.367Z,790.9
2023-04-30T20:56:49.187Z,787
2023-04-30T20:58:32.775Z,785.9
2023-04-30T21:00:16.655Z,788.5
2023-04-30T21:02:00.177Z,789.5
2023-04-30T21:03:43.893Z,790.8
2023-04-30T21:05:27.594Z,794.7
2023-04-30T21:07:11.284Z,792.8
2023-04-30T21:08:54.981Z,794.5
2023-04-30T21:10:38.883Z,794
2023-04-30T21:12:22.398Z,793.9
2023-04-30T21:14:06.123Z,791.3
2023-04-30T21:15:49.792Z,788.4
2023-04-30T21:17:33.513Z,787.6
2023-04-30T21:19:17.213Z,788
2023-04-30T21:21:00.946Z,789.6
2023-04-30T21:22:44.602Z,790.8
2023-04-30T21:24:28.366Z,791.8
2023-04-30T21:26:12.008Z,789.6
2023-04-30T21:27:55.717Z,793.9
2023-04-30T21:29:39.525Z,794.2
2023-04-30T21:31:23.127Z,796.6
2023-04-30T21:33:06.834Z,796.7
2023-04-30T21:34:50.527Z,795.2
2023-04-30T21:36:34.270Z,799.6
2023-04-30T21:38:17.930Z,800.3
2023-04-30T21:40:01.634Z,795.6
2023-04-30T21:41:45.342Z,796.6
2023-04-30T21:43:29.054Z,795.7
2023-04-30T21:45:12.734Z,797.6
2023-04-30T21:46:56.449Z,796.2
2023-04-30T21:48:40.134Z,795.6
2023-04-30T21:50:23.904Z,796.2
2023-04-30T21:52:07.645Z,797.9
2023-04-30T21:53:51.247Z,799.5
2023-04-30T21:55:34.967Z,799.8
2023-04-30T21:57:18.650Z,800.8
2023-04-30T21:59:02.345Z,798
2023-04-30T22:00:46.155Z,793.4
2023-04-30T22:02:29.941Z,795
2023-04-30T22:04:13.465Z,794.2
2023-04-30T22:05:57.243Z,795
2023-04-30T22:07:40.973Z,794.6
2023-04-30T22:09:24.602Z,795
2023-04-30T22:11:08.296Z,888.2
2023-04-30T22:12:52.080Z,922.1
2023-04-30T22:14:35.677Z,880.8
2023-04-30T22:16:19.516Z,857.4
2023-04-30T22:18:03.064Z,845
2023-04-30T22:19:46.766Z,842.7
2023-04-30T22:21:30.469Z,837.4
2023-04-30T22:23:14.293Z,839.4
2023-04-30T22:24:57.926Z,840.1
2023-04-30T22:26:41.624Z,837.9
2023-04-30T22:28:25.283Z,834.8
2023-04-30T22:30:09.073Z,835.4